createdAt,value
2019-04-21T00:00:45.620Z,12.10
2019-04-21T00:03:18.255Z,14.87
2019-04-21T00:06:04.540Z,11.67
2019-04-21T00:08:39.242Z,13.70
2019-04-21T00:11:10.751Z,12.37
2019-04-21T00:13:35.095Z,11.87
2019-04-21T00:15:53.891Z,11.97
2019-04-21T00:18:47.706Z,14.13
2019-04-21T00:21:18.305Z,15.00
2019-04-21T00:23:59.068Z,15.30
2019-04-21T00:26:27.946Z,14.90
2019-04-21T00:29:03.947Z,12.00
2019-04-21T00:31:28.530Z,14.00
2019-04-21T00:33:46.719Z,13.03
2019-04-21T00:36:20.630Z,14.53
2019-04-21T00:39:14.360Z,21.60
2019-04-21T00:41:36.719Z,12.70
2019-04-21T00:44:00.629Z,12.37
2019-04-21T00:46:37.267Z,11.77
2019-04-21T00:49:06.183Z,13.20
2019-04-21T00:51:54.149Z,13.87
2019-04-21T00:54:18.420Z,13.73
2019-04-21T00:56:49.612Z,11.53
2019-04-21T00:59:20.131Z,11.33
2019-04-21T01:01:47.958Z,12.93
2019-04-21T01:04:28.838Z,13.37
2019-04-21T01:06:56.005Z,13.67
2019-04-21T01:09:22.515Z,13.63
2019-04-21T01:11:55.402Z,11.53
2019-04-21T01:14:35.989Z,13.43
2019-04-21T01:17:02.308Z,11.40
2019-04-21T01:19:31.081Z,11.50
2019-04-21T01:21:38.133Z,15.07
2019-04-21T01:24:13.347Z,12.10
2019-04-21T01:26:48.305Z,12.07
2019-04-21T01:29:35.704Z,12.13
2019-04-21T01:32:06.811Z,13.43
2019-04-21T01:34:33.179Z,11.87
2019-04-21T01:36:59.946Z,10.90
2019-04-21T01:39:41.197Z,12.30
2019-04-21T01:42:03.291Z,12.37
2019-04-21T01:44:54.875Z,12.30
2019-04-21T01:47:03.337Z,11.93
2019-04-21T01:49:29.535Z,12.50
2019-04-21T01:52:18.090Z,11.60
2019-04-21T01:55:04.888Z,10.27
2019-04-21T01:57:52.646Z,10.63
2019-04-21T02:00:18.993Z,10.90
2019-04-21T02:03:04.274Z,13.00
2019-04-21T02:05:34.512Z,13.37
2019-04-21T02:07:55.055Z,12.47
2019-04-21T02:10:34.644Z,11.87
2019-04-21T02:13:07.182Z,10.13
2019-04-21T02:15:38.002Z,10.80
2019-04-21T02:18:06.036Z,11.70
2019-04-21T02:20:25.918Z,11.00
2019-04-21T02:23:17.853Z,14.33
2019-04-21T02:25:39.750Z,10.53
2019-04-21T02:28:16.480Z,10.43
2019-04-21T02:31:01.158Z,10.73
2019-04-21T02:36:03.055Z,9.90
2019-04-21T02:38:30.275Z,12.40
2019-04-21T02:40:51.362Z,10.90
2019-04-21T02:46:10.540Z,10.07
2019-04-21T02:48:34.446Z,12.93
2019-04-21T02:50:52.939Z,11.20
2019-04-21T02:54:28.922Z,11.70
2019-04-21T02:56:01.165Z,10.73
2019-04-21T02:58:41.673Z,9.23
2019-04-21T03:01:25.997Z,12.00
2019-04-21T03:06:54.165Z,11.43
2019-04-21T03:09:24.327Z,12.53
2019-04-21T03:11:57.964Z,9.73
2019-04-21T03:14:33.325Z,10.70
2019-04-21T03:16:52.779Z,10.23
2019-04-21T03:19:28.977Z,12.37
2019-04-21T03:22:02.977Z,10.10
2019-04-21T03:24:36.062Z,11.17
2019-04-21T03:27:09.603Z,10.50
2019-04-21T03:29:44.720Z,11.20
2019-04-21T03:35:03.350Z,13.87
2019-04-21T03:37:11.764Z,10.13
2019-04-21T03:39:37.476Z,12.47
2019-04-21T03:42:14.910Z,10.63
2019-04-21T03:44:37.310Z,11.17
2019-04-21T03:47:06.896Z,9.57
2019-04-21T03:49:47.699Z,10.53
2019-04-21T03:52:11.393Z,10.73
2019-04-21T03:55:13.197Z,10.77
2019-04-21T03:57:48.730Z,11.13
2019-04-21T04:00:21.885Z,11.23
2019-04-21T04:03:28.230Z,10.17
2019-04-21T04:08:59.067Z,12.07
2019-04-21T04:11:30.071Z,13.83
2019-04-21T04:16:29.470Z,10.00
2019-04-21T04:21:47.747Z,12.90
2019-04-21T04:24:11.020Z,12.47
2019-04-21T04:26:33.111Z,11.27
2019-04-21T04:42:04.909Z,11.60
2019-04-21T04:47:04.657Z,12.73
2019-04-21T04:49:43.304Z,14.00
2019-04-21T04:52:26.305Z,11.43
2019-04-21T04:54:59.464Z,12.17
2019-04-21T04:57:08.363Z,11.57
2019-04-21T04:59:42.506Z,12.00
2019-04-21T05:04:45.856Z,13.30
2019-04-21T05:07:07.086Z,15.93
2019-04-21T05:09:42.832Z,13.37
2019-04-21T05:12:05.893Z,11.53
2019-04-21T05:14:39.031Z,11.47
2019-04-21T05:17:19.649Z,10.87
2019-04-21T05:19:57.368Z,13.27
2019-04-21T05:22:17.225Z,12.20
2019-04-21T05:24:33.241Z,13.83
2019-04-21T05:27:05.017Z,11.17
2019-04-21T05:29:56.779Z,13.90
2019-04-21T05:32:52.970Z,15.33
2019-04-21T05:35:39.763Z,12.57
2019-04-21T05:38:17.474Z,12.10
2019-04-21T05:40:45.453Z,13.53
2019-04-21T05:43:26.385Z,12.30
2019-04-21T05:45:58.525Z,13.07
2019-04-21T05:48:32.229Z,13.53
2019-04-21T05:51:02.070Z,12.80
2019-04-21T05:53:36.326Z,13.57
2019-04-21T05:56:05.744Z,12.53
2019-04-21T05:58:37.830Z,14.30
2019-04-21T06:01:15.418Z,14.13
2019-04-21T06:03:44.306Z,16.97
2019-04-21T06:06:20.281Z,14.33
2019-04-21T06:08:49.428Z,14.07
2019-04-21T06:13:55.131Z,13.10
2019-04-21T06:16:44.160Z,13.13
2019-04-21T06:19:12.801Z,13.17
2019-04-21T06:21:23.592Z,12.90
2019-04-21T06:23:57.548Z,15.07
2019-04-21T06:26:53.811Z,13.20
2019-04-21T06:29:01.224Z,16.33
2019-04-21T06:31:59.269Z,15.60
2019-04-21T06:34:06.323Z,14.27
2019-04-21T06:37:14.667Z,14.23
2019-04-21T06:39:30.487Z,16.07
2019-04-21T06:41:58.430Z,15.33
2019-04-21T06:47:02.578Z,14.33
2019-04-21T06:49:25.156Z,15.93
2019-04-21T06:52:08.884Z,17.40
2019-04-21T06:54:33.699Z,14.93
2019-04-21T06:57:00.616Z,15.60
2019-04-21T06:59:31.922Z,15.40
2019-04-21T07:02:21.215Z,16.23
2019-04-21T07:04:46.566Z,16.03
2019-04-21T07:07:05.166Z,17.83
2019-04-21T07:10:06.302Z,16.27
2019-04-21T07:12:14.162Z,14.63
2019-04-21T07:14:47.920Z,14.90
2019-04-21T07:17:24.671Z,15.37
2019-04-21T07:19:55.376Z,15.90
2019-04-21T07:22:27.276Z,16.93
2019-04-21T07:24:58.922Z,16.47
2019-04-21T07:27:29.200Z,18.83
2019-04-21T07:29:58.588Z,17.00
2019-04-21T07:32:26.533Z,17.10
2019-04-21T07:35:04.167Z,17.50
2019-04-21T07:37:30.500Z,15.40
2019-04-21T07:40:03.820Z,20.10
2019-04-21T07:42:29.814Z,16.10
2019-04-21T07:44:52.252Z,16.07
2019-04-21T07:47:44.610Z,16.90
2019-04-21T07:50:14.597Z,16.87
2019-04-21T07:52:53.276Z,16.20
2019-04-21T07:57:44.207Z,17.37
2019-04-21T08:00:29.309Z,17.33
2019-04-21T08:02:54.502Z,19.07
2019-04-21T08:05:26.754Z,17.50
2019-04-21T08:08:01.595Z,18.43
2019-04-21T08:10:28.590Z,20.13
2019-04-21T08:12:54.315Z,15.93
2019-04-21T08:15:47.136Z,15.80
2019-04-21T08:18:02.078Z,16.20
2019-04-21T08:20:28.602Z,16.33
2019-04-21T08:23:11.083Z,17.20
2019-04-21T08:25:50.967Z,18.13
2019-04-21T08:28:05.460Z,17.33
2019-04-21T08:30:36.200Z,16.90
2019-04-21T08:33:16.157Z,17.07
2019-04-21T08:38:15.061Z,18.57
2019-04-21T08:40:42.422Z,18.87
2019-04-21T08:43:20.507Z,17.87
2019-04-21T08:45:51.241Z,19.07
2019-04-21T08:48:16.984Z,22.87
2019-04-21T08:50:52.580Z,15.77
2019-04-21T08:53:21.119Z,17.80
2019-04-21T08:56:16.004Z,18.87
2019-04-21T08:59:13.864Z,15.97
2019-04-21T09:01:43.040Z,20.43
2019-04-21T09:04:21.641Z,18.43
2019-04-21T09:06:59.194Z,16.00
2019-04-21T09:09:16.491Z,15.17
2019-04-21T09:11:47.299Z,16.13
2019-04-21T09:14:21.097Z,17.10
2019-04-21T09:16:46.005Z,16.40
2019-04-21T09:19:33.950Z,18.17
2019-04-21T09:21:55.002Z,16.20
2019-04-21T09:24:42.926Z,21.47
2019-04-21T09:26:57.998Z,15.53
2019-04-21T09:29:18.031Z,17.90
2019-04-21T09:31:43.530Z,19.53
2019-04-21T09:34:20.730Z,16.23
2019-04-21T09:36:48.064Z,16.23
2019-04-21T09:39:18.295Z,15.90
2019-04-21T09:41:52.144Z,16.67
2019-04-21T09:44:23.887Z,18.50
2019-04-21T09:46:52.387Z,17.87
2019-04-21T09:49:23.530Z,14.87
2019-04-21T09:51:50.506Z,18.20
2019-04-21T09:54:24.895Z,15.40
2019-04-21T09:56:58.569Z,17.20
2019-04-21T09:59:28.229Z,18.47
2019-04-21T10:02:05.705Z,17.60
2019-04-21T10:04:24.837Z,18.10
2019-04-21T10:06:54.547Z,15.73
2019-04-21T10:09:24.290Z,16.43
2019-04-21T10:11:54.856Z,16.60
2019-04-21T10:14:24.604Z,15.07
2019-04-21T10:17:13.161Z,18.97
2019-04-21T10:19:44.133Z,16.27
2019-04-21T10:22:14.835Z,15.70
2019-04-21T10:24:44.596Z,15.43
2019-04-21T10:27:14.750Z,15.20
2019-04-21T10:29:46.741Z,15.40
2019-04-21T10:32:18.643Z,16.00
2019-04-21T10:34:47.711Z,15.63
2019-04-21T10:37:18.694Z,14.50
2019-04-21T10:39:49.537Z,16.27
2019-04-21T10:42:19.492Z,14.67
2019-04-21T10:44:49.377Z,17.47
2019-04-21T10:47:18.956Z,16.07
2019-04-21T10:49:48.750Z,14.43
2019-04-21T10:52:29.256Z,15.33
2019-04-21T10:55:21.861Z,14.73
2019-04-21T10:57:30.904Z,15.60
2019-04-21T11:00:01.373Z,15.40
2019-04-21T11:02:37.404Z,15.90
2019-04-21T11:05:07.046Z,14.63
2019-04-21T11:08:12.170Z,15.53
2019-04-21T11:10:33.980Z,13.90
2019-04-21T11:13:04.973Z,15.63
2019-04-21T11:15:34.995Z,15.93
2019-04-21T11:18:04.490Z,14.20
2019-04-21T11:20:35.055Z,13.27
2019-04-21T11:23:05.810Z,15.73
2019-04-21T11:25:35.892Z,13.40
2019-04-21T11:28:06.978Z,15.90
2019-04-21T11:30:36.426Z,15.33
2019-04-21T11:33:08.969Z,14.17
2019-04-21T11:35:39.345Z,15.37
2019-04-21T11:38:18.129Z,13.07
2019-04-21T11:40:53.972Z,15.17
2019-04-21T11:43:24.006Z,17.27
2019-04-21T11:45:54.698Z,13.97
2019-04-21T11:48:28.313Z,15.37
2019-04-21T11:50:59.227Z,14.67
2019-04-21T11:53:29.026Z,13.63
2019-04-21T11:55:58.837Z,20.17
2019-04-21T11:58:29.759Z,14.17
2019-04-21T12:01:00.641Z,15.07
2019-04-21T12:03:31.563Z,15.60
2019-04-21T12:06:01.583Z,15.30
2019-04-21T12:08:39.293Z,11.00
2019-04-21T12:11:03.323Z,11.57
2019-04-21T12:13:34.050Z,10.50
2019-04-21T12:16:03.643Z,13.93
2019-04-21T12:18:34.013Z,10.57
2019-04-21T12:21:03.505Z,9.13
2019-04-21T12:23:32.825Z,12.43
2019-04-21T12:26:03.114Z,9.80
2019-04-21T12:28:34.192Z,8.80
2019-04-21T12:31:05.619Z,8.83
2019-04-21T12:34:00.278Z,10.33
2019-04-21T12:36:31.748Z,11.87
2019-04-21T12:39:04.765Z,10.70
2019-04-21T12:41:32.865Z,10.00
2019-04-21T12:44:02.611Z,10.53
2019-04-21T12:46:32.333Z,9.43
2019-04-21T12:49:02.151Z,11.70
2019-04-21T12:51:31.625Z,10.97
2019-04-21T12:54:01.634Z,9.80
2019-04-21T12:56:31.642Z,8.93
2019-04-21T12:59:01.606Z,12.63
2019-04-21T13:01:30.935Z,10.93
2019-04-21T13:04:00.231Z,10.57
2019-04-21T13:06:31.692Z,9.20
2019-04-21T13:09:05.275Z,8.20
2019-04-21T13:11:33.164Z,7.80
2019-04-21T13:14:03.967Z,7.83
2019-04-21T13:16:33.729Z,8.23
2019-04-21T13:19:03.427Z,10.17
2019-04-21T13:21:34.220Z,8.53
2019-04-21T13:24:04.931Z,8.33
2019-04-21T13:26:42.921Z,9.80
2019-04-21T13:29:06.058Z,8.03
2019-04-21T13:31:36.219Z,7.17
2019-04-21T13:34:06.204Z,7.40
2019-04-21T13:36:36.033Z,10.20
2019-04-21T13:39:57.141Z,8.03
2019-04-21T13:42:10.107Z,7.63
2019-04-21T13:44:30.955Z,7.60
2019-04-21T13:47:00.791Z,9.50
2019-04-21T13:49:31.543Z,9.77
2019-04-21T13:52:00.933Z,8.37
2019-04-21T13:54:31.620Z,7.33
2019-04-21T13:57:02.828Z,6.70
2019-04-21T13:59:34.147Z,9.97
2019-04-21T14:02:04.752Z,7.60
2019-04-21T14:04:35.623Z,8.47
2019-04-21T14:07:06.067Z,7.90
2019-04-21T14:09:43.859Z,9.27
2019-04-21T14:12:07.625Z,12.37
2019-04-21T14:14:38.501Z,6.60
2019-04-21T14:17:08.924Z,7.93
2019-04-21T14:19:39.458Z,7.30
2019-04-21T14:22:11.604Z,6.67
2019-04-21T14:24:41.515Z,6.40
2019-04-21T14:27:12.163Z,7.20
2019-04-21T14:29:42.011Z,9.00
2019-04-21T14:32:11.376Z,7.27
2019-04-21T14:34:41.886Z,6.50
2019-04-21T14:37:11.257Z,8.93
2019-04-21T14:39:51.652Z,6.70
2019-04-21T14:42:11.994Z,7.10
2019-04-21T14:44:42.859Z,7.50
2019-04-21T14:47:48.169Z,7.03
2019-04-21T14:50:36.553Z,6.83
2019-04-21T14:53:16.432Z,6.07
2019-04-21T14:55:46.618Z,7.73
2019-04-21T14:58:17.180Z,6.87
2019-04-21T15:00:53.070Z,10.50
2019-04-21T15:03:23.604Z,8.17
2019-04-21T15:05:53.727Z,8.50
2019-04-21T15:08:24.847Z,7.17
2019-04-21T15:10:55.032Z,9.87
2019-04-21T15:13:25.831Z,7.27
2019-04-21T15:15:56.268Z,8.73
2019-04-21T15:18:26.389Z,8.20
2019-04-21T15:20:57.255Z,7.00
2019-04-21T15:23:28.671Z,7.13
2019-04-21T15:25:58.032Z,7.03
2019-04-21T15:28:31.594Z,7.43
2019-04-21T15:30:58.653Z,8.07
2019-04-21T15:33:28.703Z,8.27
2019-04-21T15:35:58.386Z,8.17
2019-04-21T15:38:29.740Z,6.70
2019-04-21T15:41:03.834Z,10.57
2019-04-21T15:43:30.681Z,8.13
2019-04-21T15:46:00.614Z,6.20
2019-04-21T15:48:30.817Z,6.30
2019-04-21T15:51:03.623Z,5.83
2019-04-21T15:53:32.028Z,5.93
2019-04-21T15:56:15.206Z,6.87
2019-04-21T15:58:58.983Z,7.37
2019-04-21T16:01:34.556Z,7.33
2019-04-21T16:04:04.705Z,7.20
2019-04-21T16:06:35.295Z,6.03
2019-04-21T16:09:08.392Z,6.40
2019-04-21T16:11:37.990Z,9.53
2019-04-21T16:14:08.074Z,9.73
2019-04-21T16:16:39.008Z,7.80
2019-04-21T16:19:09.986Z,7.37
2019-04-21T16:21:42.435Z,7.77
2019-04-21T16:24:12.053Z,6.43
2019-04-21T16:26:42.683Z,6.63
2019-04-21T16:29:13.226Z,6.70
2019-04-21T16:31:43.019Z,6.70
2019-04-21T16:34:13.645Z,6.40
2019-04-21T16:36:43.774Z,7.50
2019-04-21T16:39:13.826Z,9.00
2019-04-21T16:41:44.592Z,6.50
2019-04-21T16:44:14.235Z,6.17
2019-04-21T16:46:45.360Z,7.93
2019-04-21T16:49:15.880Z,6.70
2019-04-21T16:51:47.149Z,5.83
2019-04-21T16:54:35.692Z,7.67
2019-04-21T16:57:24.135Z,7.10
2019-04-21T16:59:56.769Z,6.20
2019-04-21T17:02:26.535Z,6.70
2019-04-21T17:04:56.417Z,6.33
2019-04-21T17:07:26.229Z,6.23
2019-04-21T17:09:56.761Z,7.27
2019-04-21T17:12:28.186Z,7.47
2019-04-21T17:15:13.946Z,7.20
2019-04-21T17:17:49.633Z,8.63
2019-04-21T17:20:13.918Z,8.53
2019-04-21T17:22:31.566Z,6.20
2019-04-21T17:25:02.526Z,6.70
2019-04-21T17:27:33.284Z,7.23
2019-04-21T17:30:04.230Z,6.63
2019-04-21T17:32:37.210Z,8.80
2019-04-21T17:35:05.918Z,6.27
2019-04-21T17:37:36.254Z,6.07
2019-04-21T17:40:08.859Z,6.90
2019-04-21T17:42:46.487Z,6.03
2019-04-21T17:45:09.363Z,10.20
2019-04-21T17:47:45.698Z,6.73
2019-04-21T17:50:27.443Z,7.13
2019-04-21T17:53:06.550Z,7.80
2019-04-21T17:55:36.735Z,6.27
2019-04-21T17:58:16.013Z,6.10
2019-04-21T18:01:12.792Z,6.13
2019-04-21T18:03:42.103Z,5.57
2019-04-21T18:05:55.991Z,7.97
2019-04-21T18:08:29.539Z,9.97
2019-04-21T18:10:54.392Z,8.07
2019-04-21T18:13:17.593Z,7.20
2019-04-21T18:16:00.025Z,9.90
2019-04-21T18:18:16.637Z,7.33
2019-04-21T18:20:53.244Z,9.43
2019-04-21T18:23:50.586Z,9.17
2019-04-21T18:26:24.656Z,6.17
2019-04-21T18:28:44.456Z,6.13
2019-04-21T18:31:14.832Z,6.63
2019-04-21T18:34:16.472Z,8.20
2019-04-21T18:36:52.480Z,10.30
2019-04-21T18:39:40.960Z,8.33
2019-04-21T18:42:29.460Z,6.90
2019-04-21T18:48:02.431Z,8.90
2019-04-21T18:51:00.283Z,8.63
2019-04-21T18:53:46.238Z,8.97
2019-04-21T18:56:05.742Z,7.97
2019-04-21T18:58:32.657Z,9.67
2019-04-21T19:01:09.339Z,8.03
2019-04-21T19:03:39.902Z,7.47
2019-04-21T19:06:12.834Z,8.70
2019-04-21T19:09:01.190Z,9.13
2019-04-21T19:11:24.003Z,7.70
2019-04-21T19:14:28.958Z,8.43
2019-04-21T19:16:47.286Z,8.27
2019-04-21T19:21:46.994Z,8.07
2019-04-21T19:24:24.228Z,8.37
2019-04-21T19:27:05.167Z,8.27
2019-04-21T19:29:23.972Z,8.07
2019-04-21T19:32:00.021Z,9.00
2019-04-21T19:34:14.306Z,7.37
2019-04-21T19:36:41.781Z,8.50
2019-04-21T19:39:16.086Z,9.93
2019-04-21T19:41:50.971Z,9.47
2019-04-21T19:44:32.261Z,8.37
2019-04-21T19:47:03.849Z,7.87
2019-04-21T19:49:40.544Z,10.33
2019-04-21T19:51:53.998Z,10.27
2019-04-21T19:54:26.149Z,9.67
2019-04-21T19:56:47.218Z,12.23
2019-04-21T19:59:22.185Z,11.50
2019-04-21T20:01:49.968Z,9.40
2019-04-21T20:04:20.048Z,11.90
2019-04-21T20:07:01.020Z,11.10
2019-04-21T20:09:37.508Z,12.23
2019-04-21T20:12:06.647Z,15.07
2019-04-21T20:14:59.451Z,9.67
2019-04-21T20:17:08.355Z,9.70
2019-04-21T20:19:24.799Z,10.20
2019-04-21T20:21:54.517Z,11.57
2019-04-21T20:24:28.356Z,11.90
2019-04-21T20:27:04.733Z,10.57
2019-04-21T20:29:46.947Z,11.10
2019-04-21T20:32:20.443Z,11.13
2019-04-21T20:34:46.015Z,10.97
2019-04-21T20:37:15.058Z,10.53
2019-04-21T20:39:40.399Z,11.97
2019-04-21T20:42:15.670Z,11.33
2019-04-21T20:44:54.622Z,11.13
2019-04-21T20:47:17.022Z,10.47
2019-04-21T20:49:43.877Z,12.37
2019-04-21T20:52:29.406Z,11.17
2019-04-21T20:54:47.891Z,11.13
2019-04-21T20:57:26.318Z,11.07
2019-04-21T21:00:02.379Z,10.80
2019-04-21T21:02:28.440Z,10.77
2019-04-21T21:04:52.705Z,12.53
2019-04-21T21:07:40.529Z,11.50
2019-04-21T21:10:08.181Z,11.03
2019-04-21T21:12:40.739Z,13.10
2019-04-21T21:14:57.960Z,13.83
2019-04-21T21:17:46.816Z,11.03
2019-04-21T21:20:07.821Z,10.07
2019-04-21T21:22:38.024Z,11.23
2019-04-21T21:25:10.068Z,11.93
2019-04-21T21:27:36.773Z,10.73
2019-04-21T21:30:09.974Z,12.83
2019-04-21T21:32:37.520Z,11.93
2019-04-21T21:35:13.009Z,10.30
2019-04-21T21:37:49.535Z,11.80
2019-04-21T21:40:17.671Z,11.20
2019-04-21T21:42:34.438Z,9.67
2019-04-21T21:45:06.105Z,10.60
2019-04-21T21:47:47.473Z,10.97
2019-04-21T21:50:13.380Z,10.43
2019-04-21T21:52:46.519Z,11.17
2019-04-21T21:55:05.732Z,11.10
2019-04-21T21:57:43.017Z,12.33
2019-04-21T22:00:12.325Z,10.37
2019-04-21T22:02:46.121Z,10.67
2019-04-21T22:05:16.859Z,10.10
2019-04-21T22:07:44.541Z,10.83
2019-04-21T22:10:15.892Z,11.57
2019-04-21T22:12:56.826Z,10.60
2019-04-21T22:15:22.301Z,11.73
2019-04-21T22:18:07.462Z,14.10
2019-04-21T22:20:37.376Z,12.33
2019-04-21T22:22:59.668Z,11.27
2019-04-21T22:25:26.892Z,14.00
2019-04-21T22:27:53.662Z,11.80
2019-04-21T22:30:29.994Z,12.17
2019-04-21T22:33:00.611Z,10.67
2019-04-21T22:35:34.521Z,10.37
2019-04-21T22:38:13.917Z,11.37
2019-04-21T22:40:44.031Z,12.73
2019-04-21T22:43:11.709Z,11.97
2019-04-21T22:45:31.211Z,12.57
2019-04-21T22:48:07.485Z,12.00
2019-04-21T22:50:35.081Z,13.57
2019-04-21T22:53:07.931Z,11.50
2019-04-21T22:55:37.231Z,13.57
2019-04-21T22:58:07.771Z,11.40
2019-04-21T23:00:44.448Z,11.40
2019-04-21T23:03:13.552Z,13.10
2019-04-21T23:05:42.764Z,11.33
2019-04-21T23:08:11.117Z,13.13
2019-04-21T23:10:42.615Z,12.30
2019-04-21T23:13:17.852Z,13.03
2019-04-21T23:15:49.380Z,12.30
2019-04-21T23:18:34.909Z,13.67
2019-04-21T23:21:03.390Z,12.97
2019-04-21T23:23:37.345Z,13.33
2019-04-21T23:26:11.330Z,14.93
2019-04-21T23:28:40.559Z,13.00
2019-04-21T23:31:06.328Z,14.60
2019-04-21T23:33:22.004Z,13.40
2019-04-21T23:35:59.104Z,14.50
2019-04-21T23:38:30.287Z,12.93
2019-04-21T23:40:58.005Z,12.30
2019-04-21T23:43:27.510Z,11.87
2019-04-21T23:45:55.179Z,13.80
2019-04-21T23:48:36.514Z,13.00
2019-04-21T23:51:10.940Z,14.43
2019-04-21T23:53:26.265Z,13.80
2019-04-21T23:55:55.480Z,12.63
2019-04-21T23:58:29.090Z,18.63
